sensor_id;sensor_type;location;lat;lon;timestamp;temperature;humidity
27164;DHT22;14685;50.618;7.024;2024-03-25T00:00:42;9.40;99.90
27164;DHT22;14685;50.618;7.024;2024-03-25T00:03:08;9.40;99.90
27164;DHT22;14685;50.618;7.024;2024-03-25T00:05:34;9.40;99.90
27164;DHT22;14685;50.618;7.024;2024-03-25T00:08:00;9.40;99.90
27164;DHT22;14685;50.618;7.024;2024-03-25T00:10:25;9.40;99.90
27164;DHT22;14685;50.618;7.024;2024-03-25T00:12:51;9.40;99.90
27164;DHT22;14685;50.618;7.024;2024-03-25T00:15:22;9.40;99.90
27164;DHT22;14685;50.618;7.024;2024-03-25T00:17:50;9.40;99.90
27164;DHT22;14685;50.618;7.024;2024-03-25T00:20:16;9.40;99.90
27164;DHT22;14685;50.618;7.024;2024-03-25T00:22:42;9.40;99.90
27164;DHT22;14685;50.618;7.024;2024-03-25T00:25:08;9.40;99.90
27164;DHT22;14685;50.618;7.024;2024-03-25T00:27:34;9.40;99.90
27164;DHT22;14685;50.618;7.024;2024-03-25T00:30:00;9.40;99.90
27164;DHT22;14685;50.618;7.024;2024-03-25T00:32:28;9.40;99.90
27164;DHT22;14685;50.618;7.024;2024-03-25T00:34:53;9.30;99.90
27164;DHT22;14685;50.618;7.024;2024-03-25T00:37:19;9.40;99.90
27164;DHT22;14685;50.618;7.024;2024-03-25T00:39:45;9.40;99.90
27164;DHT22;14685;50.618;7.024;2024-03-25T00:42:11;9.40;99.90
27164;DHT22;14685;50.618;7.024;2024-03-25T00:44:37;9.40;99.90
27164;DHT22;14685;50.618;7.024;2024-03-25T00:47:03;9.40;99.90
27164;DHT22;14685;50.618;7.024;2024-03-25T00:49:29;9.40;99.90
27164;DHT22;14685;50.618;7.024;2024-03-25T00:51:56;9.40;99.90
27164;DHT22;14685;50.618;7.024;2024-03-25T00:54:22;9.40;99.90
27164;DHT22;14685;50.618;7.024;2024-03-25T00:56:49;9.40;99.90
27164;DHT22;14685;50.618;7.024;2024-03-25T00:59:17;9.40;99.90
27164;DHT22;14685;50.618;7.024;2024-03-25T01:01:43;9.40;99.90
27164;DHT22;14685;50.618;7.024;2024-03-25T01:04:09;9.40;99.90
27164;DHT22;14685;50.618;7.024;2024-03-25T01:06:34;9.40;99.90
27164;DHT22;14685;50.618;7.024;2024-03-25T01:09:00;9.40;99.90
27164;DHT22;14685;50.618;7.024;2024-03-25T01:11:26;9.40;99.90
27164;DHT22;14685;50.618;7.024;2024-03-25T01:13:52;9.40;99.90
27164;DHT22;14685;50.618;7.024;2024-03-25T01:16:18;9.40;99.90
27164;DHT22;14685;50.618;7.024;2024-03-25T01:18:43;9.40;99.90
27164;DHT22;14685;50.618;7.024;2024-03-25T01:21:09;9.30;99.90
27164;DHT22;14685;50.618;7.024;2024-03-25T01:23:35;9.30;99.90
27164;DHT22;14685;50.618;7.024;2024-03-25T01:26:01;9.30;99.90
27164;DHT22;14685;50.618;7.024;2024-03-25T01:28:27;9.30;99.90
27164;DHT22;14685;50.618;7.024;2024-03-25T01:30:53;9.30;99.90
27164;DHT22;14685;50.618;7.024;2024-03-25T01:33:19;9.30;99.90
27164;DHT22;14685;50.618;7.024;2024-03-25T01:35:45;9.30;99.90
27164;DHT22;14685;50.618;7.024;2024-03-25T01:38:11;9.30;99.90
27164;DHT22;14685;50.618;7.024;2024-03-25T01:40:37;9.30;99.90
27164;DHT22;14685;50.618;7.024;2024-03-25T01:43:03;9.30;99.90
27164;DHT22;14685;50.618;7.024;2024-03-25T01:45:31;9.30;99.90
27164;DHT22;14685;50.618;7.024;2024-03-25T01:47:59;9.30;99.90
27164;DHT22;14685;50.618;7.024;2024-03-25T01:50:26;9.30;99.90
27164;DHT22;14685;50.618;7.024;2024-03-25T01:52:53;9.30;99.90
27164;DHT22;14685;50.618;7.024;2024-03-25T01:55:26;9.30;99.90
27164;DHT22;14685;50.618;7.024;2024-03-25T01:57:53;9.30;99.90
27164;DHT22;14685;50.618;7.024;2024-03-25T02:00:20;9.30;99.90
27164;DHT22;14685;50.618;7.024;2024-03-25T02:02:47;9.30;99.90
27164;DHT22;14685;50.618;7.024;2024-03-25T02:05:17;9.30;99.90
27164;DHT22;14685;50.618;7.024;2024-03-25T02:07:43;9.20;99.90
27164;DHT22;14685;50.618;7.024;2024-03-25T02:10:09;9.20;99.90
27164;DHT22;14685;50.618;7.024;2024-03-25T02:12:39;9.20;99.90
27164;DHT22;14685;50.618;7.024;2024-03-25T02:15:06;9.20;99.90
27164;DHT22;14685;50.618;7.024;2024-03-25T02:17:33;9.20;99.90
27164;DHT22;14685;50.618;7.024;2024-03-25T02:19:59;9.20;99.90
27164;DHT22;14685;50.618;7.024;2024-03-25T02:22:25;9.20;99.90
27164;DHT22;14685;50.618;7.024;2024-03-25T02:24:53;9.20;99.90
27164;DHT22;14685;50.618;7.024;2024-03-25T02:27:22;9.20;99.90
27164;DHT22;14685;50.618;7.024;2024-03-25T02:29:48;9.20;99.90
27164;DHT22;14685;50.618;7.024;2024-03-25T02:32:14;9.20;99.90
27164;DHT22;14685;50.618;7.024;2024-03-25T02:34:45;9.20;99.90
27164;DHT22;14685;50.618;7.024;2024-03-25T02:37:13;9.20;99.90
27164;DHT22;14685;50.618;7.024;2024-03-25T02:39:39;9.20;99.90
27164;DHT22;14685;50.618;7.024;2024-03-25T02:42:05;9.20;99.90
27164;DHT22;14685;50.618;7.024;2024-03-25T02:44:31;9.10;99.90
27164;DHT22;14685;50.618;7.024;2024-03-25T02:46:58;9.10;99.90
27164;DHT22;14685;50.618;7.024;2024-03-25T02:49:25;9.10;99.90
27164;DHT22;14685;50.618;7.024;2024-03-25T02:51:51;9.10;99.90
27164;DHT22;14685;50.618;7.024;2024-03-25T02:54:17;9.10;99.90
27164;DHT22;14685;50.618;7.024;2024-03-25T02:56:44;9.10;99.90
27164;DHT22;14685;50.618;7.024;2024-03-25T02:59:09;9.10;99.90
27164;DHT22;14685;50.618;7.024;2024-03-25T03:01:35;9.00;99.90
27164;DHT22;14685;50.618;7.024;2024-03-25T03:04:01;9.00;99.90
27164;DHT22;14685;50.618;7.024;2024-03-25T03:06:27;9.00;99.90
27164;DHT22;14685;50.618;7.024;2024-03-25T03:08:53;9.00;99.90
27164;DHT22;14685;50.618;7.024;2024-03-25T03:11:19;9.00;99.90
27164;DHT22;14685;50.618;7.024;2024-03-25T03:13:45;9.00;99.90
27164;DHT22;14685;50.618;7.024;2024-03-25T03:16:11;8.90;99.90
27164;DHT22;14685;50.618;7.024;2024-03-25T03:18:37;8.90;99.90
27164;DHT22;14685;50.618;7.024;2024-03-25T03:21:05;8.90;99.90
27164;DHT22;14685;50.618;7.024;2024-03-25T03:23:30;8.90;99.90
27164;DHT22;14685;50.618;7.024;2024-03-25T03:25:56;8.90;99.90
27164;DHT22;14685;50.618;7.024;2024-03-25T03:28:25;8.90;99.90
27164;DHT22;14685;50.618;7.024;2024-03-25T03:30:51;8.80;99.90
27164;DHT22;14685;50.618;7.024;2024-03-25T03:33:17;8.80;99.90
27164;DHT22;14685;50.618;7.024;2024-03-25T03:35:43;8.80;99.90
27164;DHT22;14685;50.618;7.024;2024-03-25T03:38:09;8.70;99.90
27164;DHT22;14685;50.618;7.024;2024-03-25T03:40:34;8.70;99.90
27164;DHT22;14685;50.618;7.024;2024-03-25T03:43:00;8.70;99.90
27164;DHT22;14685;50.618;7.024;2024-03-25T03:45:26;8.70;99.90
27164;DHT22;14685;50.618;7.024;2024-03-25T03:47:52;8.60;99.90
27164;DHT22;14685;50.618;7.024;2024-03-25T03:52:44;8.50;99.90
27164;DHT22;14685;50.618;7.024;2024-03-25T03:55:10;8.50;99.90
27164;DHT22;14685;50.618;7.024;2024-03-25T03:57:35;8.50;99.90
27164;DHT22;14685;50.618;7.024;2024-03-25T04:00:02;8.40;99.90
27164;DHT22;14685;50.618;7.024;2024-03-25T04:02:30;8.40;99.90
27164;DHT22;14685;50.618;7.024;2024-03-25T04:04:56;8.40;99.90
27164;DHT22;14685;50.618;7.024;2024-03-25T04:07:22;8.30;99.90
27164;DHT22;14685;50.618;7.024;2024-03-25T04:09:53;8.30;99.90
27164;DHT22;14685;50.618;7.024;2024-03-25T04:12:19;8.30;99.90
27164;DHT22;14685;50.618;7.024;2024-03-25T04:14:48;8.30;99.90
27164;DHT22;14685;50.618;7.024;2024-03-25T04:17:15;8.20;99.90
27164;DHT22;14685;50.618;7.024;2024-03-25T04:19:41;8.20;99.90
27164;DHT22;14685;50.618;7.024;2024-03-25T04:22:07;8.20;99.90
27164;DHT22;14685;50.618;7.024;2024-03-25T04:24:33;8.20;99.90
27164;DHT22;14685;50.618;7.024;2024-03-25T04:27:00;8.10;99.90
27164;DHT22;14685;50.618;7.024;2024-03-25T04:29:25;8.10;99.90
27164;DHT22;14685;50.618;7.024;2024-03-25T04:31:51;8.00;99.90
27164;DHT22;14685;50.618;7.024;2024-03-25T04:34:17;8.00;99.90
27164;DHT22;14685;50.618;7.024;2024-03-25T04:36:43;8.00;99.90
27164;DHT22;14685;50.618;7.024;2024-03-25T04:39:09;7.90;99.90
27164;DHT22;14685;50.618;7.024;2024-03-25T04:41:37;7.90;99.90
27164;DHT22;14685;50.618;7.024;2024-03-25T04:44:03;7.90;99.90
27164;DHT22;14685;50.618;7.024;2024-03-25T04:46:28;7.90;99.90
27164;DHT22;14685;50.618;7.024;2024-03-25T04:48:54;7.80;99.90
27164;DHT22;14685;50.618;7.024;2024-03-25T04:51:20;7.90;99.90
27164;DHT22;14685;50.618;7.024;2024-03-25T04:53:47;7.80;99.90
27164;DHT22;14685;50.618;7.024;2024-03-25T04:56:12;7.70;99.90
27164;DHT22;14685;50.618;7.024;2024-03-25T04:58:39;7.70;99.90
27164;DHT22;14685;50.618;7.024;2024-03-25T05:01:06;7.70;99.90
27164;DHT22;14685;50.618;7.024;2024-03-25T05:03:32;7.70;99.90
27164;DHT22;14685;50.618;7.024;2024-03-25T05:05:58;7.70;99.90
27164;DHT22;14685;50.618;7.024;2024-03-25T05:08:24;7.60;99.90
27164;DHT22;14685;50.618;7.024;2024-03-25T05:10:50;7.60;99.90
27164;DHT22;14685;50.618;7.024;2024-03-25T05:13:16;7.60;99.90
27164;DHT22;14685;50.618;7.024;2024-03-25T05:15:52;7.60;99.90
27164;DHT22;14685;50.618;7.024;2024-03-25T05:18:18;7.60;99.90
27164;DHT22;14685;50.618;7.024;2024-03-25T05:20:44;7.50;99.90
27164;DHT22;14685;50.618;7.024;2024-03-25T05:23:10;7.50;99.90
27164;DHT22;14685;50.618;7.024;2024-03-25T05:25:36;7.50;99.90
27164;DHT22;14685;50.618;7.024;2024-03-25T05:28:04;7.50;99.90
27164;DHT22;14685;50.618;7.024;2024-03-25T05:30:30;7.50;99.90
27164;DHT22;14685;50.618;7.024;2024-03-25T05:32:56;7.40;99.90
27164;DHT22;14685;50.618;7.024;2024-03-25T05:35:22;7.40;99.90
27164;DHT22;14685;50.618;7.024;2024-03-25T05:37:48;7.30;99.90
27164;DHT22;14685;50.618;7.024;2024-03-25T05:42:44;7.10;99.90
27164;DHT22;14685;50.618;7.024;2024-03-25T05:45:10;7.10;99.90
27164;DHT22;14685;50.618;7.024;2024-03-25T05:47:36;7.00;99.90
27164;DHT22;14685;50.618;7.024;2024-03-25T05:50:02;7.00;99.90
27164;DHT22;14685;50.618;7.024;2024-03-25T05:52:31;6.90;99.90
27164;DHT22;14685;50.618;7.024;2024-03-25T05:54:57;6.90;99.90
27164;DHT22;14685;50.618;7.024;2024-03-25T05:57:23;7.00;99.90
27164;DHT22;14685;50.618;7.024;2024-03-25T05:59:49;7.00;99.90
27164;DHT22;14685;50.618;7.024;2024-03-25T06:02:15;6.90;99.90
27164;DHT22;14685;50.618;7.024;2024-03-25T06:04:41;6.90;99.90
27164;DHT22;14685;50.618;7.024;2024-03-25T06:07:07;6.90;99.90
27164;DHT22;14685;50.618;7.024;2024-03-25T06:09:32;6.90;99.90
27164;DHT22;14685;50.618;7.024;2024-03-25T06:11:58;6.90;99.90
27164;DHT22;14685;50.618;7.024;2024-03-25T06:14:24;7.00;99.90
27164;DHT22;14685;50.618;7.024;2024-03-25T06:16:50;7.00;99.90
27164;DHT22;14685;50.618;7.024;2024-03-25T06:19:16;7.00;99.90
27164;DHT22;14685;50.618;7.024;2024-03-25T06:21:42;7.10;99.90
27164;DHT22;14685;50.618;7.024;2024-03-25T06:24:08;7.10;99.90
27164;DHT22;14685;50.618;7.024;2024-03-25T06:26:34;7.20;99.90
27164;DHT22;14685;50.618;7.024;2024-03-25T06:29:00;7.20;99.90
27164;DHT22;14685;50.618;7.024;2024-03-25T06:31:26;7.30;99.90
27164;DHT22;14685;50.618;7.024;2024-03-25T06:34:10;7.40;99.90
27164;DHT22;14685;50.618;7.024;2024-03-25T06:36:48;7.40;99.90
27164;DHT22;14685;50.618;7.024;2024-03-25T06:39:14;7.50;99.90
27164;DHT22;14685;50.618;7.024;2024-03-25T06:41:40;7.50;99.90
27164;DHT22;14685;50.618;7.024;2024-03-25T06:44:06;7.70;99.90
27164;DHT22;14685;50.618;7.024;2024-03-25T06:46:33;7.80;99.90
27164;DHT22;14685;50.618;7.024;2024-03-25T06:48:59;8.10;99.90
27164;DHT22;14685;50.618;7.024;2024-03-25T06:51:25;8.30;99.90
27164;DHT22;14685;50.618;7.024;2024-03-25T06:53:52;8.40;99.90
27164;DHT22;14685;50.618;7.024;2024-03-25T06:56:17;8.70;99.90
27164;DHT22;14685;50.618;7.024;2024-03-25T06:58:43;8.80;99.90
27164;DHT22;14685;50.618;7.024;2024-03-25T07:01:09;8.90;99.90
27164;DHT22;14685;50.618;7.024;2024-03-25T07:03:38;9.00;99.90
27164;DHT22;14685;50.618;7.024;2024-03-25T07:06:04;9.10;99.90
27164;DHT22;14685;50.618;7.024;2024-03-25T07:08:31;9.30;99.90
27164;DHT22;14685;50.618;7.024;2024-03-25T07:10:57;9.40;99.90
27164;DHT22;14685;50.618;7.024;2024-03-25T07:13:23;9.50;99.90
27164;DHT22;14685;50.618;7.024;2024-03-25T07:15:50;9.60;99.90
27164;DHT22;14685;50.618;7.024;2024-03-25T07:18:16;9.60;99.90
27164;DHT22;14685;50.618;7.024;2024-03-25T07:20:43;9.70;99.90
27164;DHT22;14685;50.618;7.024;2024-03-25T07:23:09;9.80;99.90
27164;DHT22;14685;50.618;7.024;2024-03-25T07:25:35;9.80;99.90
27164;DHT22;14685;50.618;7.024;2024-03-25T07:28:02;9.80;99.90
27164;DHT22;14685;50.618;7.024;2024-03-25T07:30:28;9.80;99.90
27164;DHT22;14685;50.618;7.024;2024-03-25T07:32:58;9.80;99.90
27164;DHT22;14685;50.618;7.024;2024-03-25T07:35:24;10.00;99.90
27164;DHT22;14685;50.618;7.024;2024-03-25T07:37:51;10.00;99.90
27164;DHT22;14685;50.618;7.024;2024-03-25T07:40:18;10.10;99.90
27164;DHT22;14685;50.618;7.024;2024-03-25T07:42:43;10.40;99.90
27164;DHT22;14685;50.618;7.024;2024-03-25T07:45:09;10.60;99.90
27164;DHT22;14685;50.618;7.024;2024-03-25T07:47:35;10.70;99.90
27164;DHT22;14685;50.618;7.024;2024-03-25T07:50:02;10.90;99.90
27164;DHT22;14685;50.618;7.024;2024-03-25T07:52:28;11.20;99.90
27164;DHT22;14685;50.618;7.024;2024-03-25T07:54:55;11.30;99.90
27164;DHT22;14685;50.618;7.024;2024-03-25T07:57:21;11.60;99.90
27164;DHT22;14685;50.618;7.024;2024-03-25T07:59:47;11.70;99.90
27164;DHT22;14685;50.618;7.024;2024-03-25T08:02:13;12.00;99.90
27164;DHT22;14685;50.618;7.024;2024-03-25T08:04:39;12.10;99.90
27164;DHT22;14685;50.618;7.024;2024-03-25T08:07:05;12.20;99.90
27164;DHT22;14685;50.618;7.024;2024-03-25T08:09:31;12.40;99.90
27164;DHT22;14685;50.618;7.024;2024-03-25T08:11:57;12.50;99.90
27164;DHT22;14685;50.618;7.024;2024-03-25T08:14:23;12.50;99.90
27164;DHT22;14685;50.618;7.024;2024-03-25T08:16:49;12.50;99.90
27164;DHT22;14685;50.618;7.024;2024-03-25T08:19:15;12.50;99.90
27164;DHT22;14685;50.618;7.024;2024-03-25T08:21:40;12.40;99.90
27164;DHT22;14685;50.618;7.024;2024-03-25T08:24:06;12.40;99.90
27164;DHT22;14685;50.618;7.024;2024-03-25T08:26:32;12.50;99.90
27164;DHT22;14685;50.618;7.024;2024-03-25T08:28:58;12.50;99.90
27164;DHT22;14685;50.618;7.024;2024-03-25T08:31:24;12.60;99.90
27164;DHT22;14685;50.618;7.024;2024-03-25T08:33:50;12.70;99.90
27164;DHT22;14685;50.618;7.024;2024-03-25T08:36:16;12.70;99.90
27164;DHT22;14685;50.618;7.024;2024-03-25T08:38:42;12.60;99.90
27164;DHT22;14685;50.618;7.024;2024-03-25T08:41:08;12.70;99.90
27164;DHT22;14685;50.618;7.024;2024-03-25T08:43:34;12.70;99.90
27164;DHT22;14685;50.618;7.024;2024-03-25T08:46:00;12.80;99.90
27164;DHT22;14685;50.618;7.024;2024-03-25T08:48:25;13.00;99.90
27164;DHT22;14685;50.618;7.024;2024-03-25T08:50:52;12.90;99.90
27164;DHT22;14685;50.618;7.024;2024-03-25T08:53:21;12.90;99.90
27164;DHT22;14685;50.618;7.024;2024-03-25T08:55:47;13.20;99.90
27164;DHT22;14685;50.618;7.024;2024-03-25T08:58:14;13.40;99.90
27164;DHT22;14685;50.618;7.024;2024-03-25T09:00:43;13.50;99.90
27164;DHT22;14685;50.618;7.024;2024-03-25T09:03:10;13.60;99.90
27164;DHT22;14685;50.618;7.024;2024-03-25T09:05:39;13.60;99.90
27164;DHT22;14685;50.618;7.024;2024-03-25T09:08:06;13.60;99.90
27164;DHT22;14685;50.618;7.024;2024-03-25T09:10:32;13.60;99.90
27164;DHT22;14685;50.618;7.024;2024-03-25T09:13:17;13.80;99.90
27164;DHT22;14685;50.618;7.024;2024-03-25T09:15:43;13.80;99.90
27164;DHT22;14685;50.618;7.024;2024-03-25T09:18:09;13.80;99.90
27164;DHT22;14685;50.618;7.024;2024-03-25T09:20:34;13.60;99.90
27164;DHT22;14685;50.618;7.024;2024-03-25T09:23:00;13.60;99.90
27164;DHT22;14685;50.618;7.024;2024-03-25T09:25:26;13.60;99.90
27164;DHT22;14685;50.618;7.024;2024-03-25T09:27:52;13.70;99.90
27164;DHT22;14685;50.618;7.024;2024-03-25T09:30:18;13.80;99.90
27164;DHT22;14685;50.618;7.024;2024-03-25T09:32:46;13.90;99.90
27164;DHT22;14685;50.618;7.024;2024-03-25T09:35:13;14.00;99.90
27164;DHT22;14685;50.618;7.024;2024-03-25T09:37:39;14.00;99.90
27164;DHT22;14685;50.618;7.024;2024-03-25T09:40:05;13.90;99.90
27164;DHT22;14685;50.618;7.024;2024-03-25T09:42:49;13.90;99.90
27164;DHT22;14685;50.618;7.024;2024-03-25T09:45:18;14.00;99.90
27164;DHT22;14685;50.618;7.024;2024-03-25T09:47:48;14.20;99.90
27164;DHT22;14685;50.618;7.024;2024-03-25T09:50:14;14.30;99.90
27164;DHT22;14685;50.618;7.024;2024-03-25T09:52:47;14.30;99.90
27164;DHT22;14685;50.618;7.024;2024-03-25T09:55:13;14.30;99.90
27164;DHT22;14685;50.618;7.024;2024-03-25T09:57:39;14.20;99.90
27164;DHT22;14685;50.618;7.024;2024-03-25T10:00:08;14.20;99.90
27164;DHT22;14685;50.618;7.024;2024-03-25T10:02:38;14.10;99.90
27164;DHT22;14685;50.618;7.024;2024-03-25T10:05:05;14.20;99.90
27164;DHT22;14685;50.618;7.024;2024-03-25T10:07:32;14.20;99.90
27164;DHT22;14685;50.618;7.024;2024-03-25T10:09:58;14.30;99.90
27164;DHT22;14685;50.618;7.024;2024-03-25T10:12:24;14.30;99.90
27164;DHT22;14685;50.618;7.024;2024-03-25T10:14:50;14.30;99.90
27164;DHT22;14685;50.618;7.024;2024-03-25T10:17:16;14.40;99.90
27164;DHT22;14685;50.618;7.024;2024-03-25T10:19:42;14.50;99.90
27164;DHT22;14685;50.618;7.024;2024-03-25T10:22:08;14.50;99.90
27164;DHT22;14685;50.618;7.024;2024-03-25T10:24:45;14.50;99.90
27164;DHT22;14685;50.618;7.024;2024-03-25T10:27:23;14.50;99.90
27164;DHT22;14685;50.618;7.024;2024-03-25T10:29:53;14.50;99.90
27164;DHT22;14685;50.618;7.024;2024-03-25T10:32:21;14.60;99.90
27164;DHT22;14685;50.618;7.024;2024-03-25T10:34:47;14.50;99.90
27164;DHT22;14685;50.618;7.024;2024-03-25T10:37:14;14.40;99.90
27164;DHT22;14685;50.618;7.024;2024-03-25T10:39:50;14.50;99.90
27164;DHT22;14685;50.618;7.024;2024-03-25T10:42:19;14.60;99.90
27164;DHT22;14685;50.618;7.024;2024-03-25T10:44:47;14.50;99.90
27164;DHT22;14685;50.618;7.024;2024-03-25T10:47:21;14.50;99.90
27164;DHT22;14685;50.618;7.024;2024-03-25T10:49:53;14.50;99.90
27164;DHT22;14685;50.618;7.024;2024-03-25T10:52:20;14.50;99.90
27164;DHT22;14685;50.618;7.024;2024-03-25T10:54:47;14.50;99.90
27164;DHT22;14685;50.618;7.024;2024-03-25T10:57:13;14.40;99.90
27164;DHT22;14685;50.618;7.024;2024-03-25T10:59:41;14.40;99.90
27164;DHT22;14685;50.618;7.024;2024-03-25T11:02:11;14.40;99.90
27164;DHT22;14685;50.618;7.024;2024-03-25T11:04:39;14.30;99.90
27164;DHT22;14685;50.618;7.024;2024-03-25T11:07:12;14.40;99.90
27164;DHT22;14685;50.618;7.024;2024-03-25T11:09:38;14.40;99.90
27164;DHT22;14685;50.618;7.024;2024-03-25T11:12:04;14.30;99.90
27164;DHT22;14685;50.618;7.024;2024-03-25T11:14:30;14.50;99.90
27164;DHT22;14685;50.618;7.024;2024-03-25T11:16:58;14.50;99.90
27164;DHT22;14685;50.618;7.024;2024-03-25T11:19:28;14.40;99.90
27164;DHT22;14685;50.618;7.024;2024-03-25T11:21:55;14.40;99.90
27164;DHT22;14685;50.618;7.024;2024-03-25T11:24:47;14.50;99.90
27164;DHT22;14685;50.618;7.024;2024-03-25T11:27:14;14.50;99.90
27164;DHT22;14685;50.618;7.024;2024-03-25T11:29:40;14.60;99.90
27164;DHT22;14685;50.618;7.024;2024-03-25T11:32:06;14.60;99.90
27164;DHT22;14685;50.618;7.024;2024-03-25T11:34:33;14.60;99.90
27164;DHT22;14685;50.618;7.024;2024-03-25T11:37:01;14.50;99.90
27164;DHT22;14685;50.618;7.024;2024-03-25T11:39:29;14.50;99.90
27164;DHT22;14685;50.618;7.024;2024-03-25T11:41:55;14.50;99.90
27164;DHT22;14685;50.618;7.024;2024-03-25T11:44:21;14.40;99.90
27164;DHT22;14685;50.618;7.024;2024-03-25T11:46:50;14.50;99.90
27164;DHT22;14685;50.618;7.024;2024-03-25T11:49:16;14.30;99.90
27164;DHT22;14685;50.618;7.024;2024-03-25T11:52:02;14.30;99.90
27164;DHT22;14685;50.618;7.024;2024-03-25T11:54:28;14.30;99.90
27164;DHT22;14685;50.618;7.024;2024-03-25T11:56:54;14.30;99.90
27164;DHT22;14685;50.618;7.024;2024-03-25T11:59:20;14.40;99.90
27164;DHT22;14685;50.618;7.024;2024-03-25T12:01:46;14.30;99.90
27164;DHT22;14685;50.618;7.024;2024-03-25T12:04:17;14.30;99.90
27164;DHT22;14685;50.618;7.024;2024-03-25T12:06:45;14.40;99.90
27164;DHT22;14685;50.618;7.024;2024-03-25T12:09:11;14.40;99.90
27164;DHT22;14685;50.618;7.024;2024-03-25T12:11:57;14.30;99.90
27164;DHT22;14685;50.618;7.024;2024-03-25T12:14:24;14.10;99.90
27164;DHT22;14685;50.618;7.024;2024-03-25T12:16:53;14.00;99.90
27164;DHT22;14685;50.618;7.024;2024-03-25T12:19:20;13.90;99.90
27164;DHT22;14685;50.618;7.024;2024-03-25T12:21:47;13.70;99.90
27164;DHT22;14685;50.618;7.024;2024-03-25T12:24:13;13.80;99.90
27164;DHT22;14685;50.618;7.024;2024-03-25T12:26:40;13.70;99.90
27164;DHT22;14685;50.618;7.024;2024-03-25T12:29:06;13.70;99.90
27164;DHT22;14685;50.618;7.024;2024-03-25T12:31:32;13.70;99.90
27164;DHT22;14685;50.618;7.024;2024-03-25T12:33:58;13.70;99.90
27164;DHT22;14685;50.618;7.024;2024-03-25T12:36:24;13.60;99.90
27164;DHT22;14685;50.618;7.024;2024-03-25T12:38:56;13.60;99.90
27164;DHT22;14685;50.618;7.024;2024-03-25T12:41:23;13.60;99.90
27164;DHT22;14685;50.618;7.024;2024-03-25T12:43:51;13.70;99.90
27164;DHT22;14685;50.618;7.024;2024-03-25T12:46:17;13.80;99.90
27164;DHT22;14685;50.618;7.024;2024-03-25T12:48:43;13.90;99.90
27164;DHT22;14685;50.618;7.024;2024-03-25T12:51:13;13.90;99.90
27164;DHT22;14685;50.618;7.024;2024-03-25T12:53:39;14.00;99.90
27164;DHT22;14685;50.618;7.024;2024-03-25T12:56:05;14.00;99.90
27164;DHT22;14685;50.618;7.024;2024-03-25T12:58:30;14.00;99.90
27164;DHT22;14685;50.618;7.024;2024-03-25T13:00:57;14.10;99.90
27164;DHT22;14685;50.618;7.024;2024-03-25T13:03:23;14.10;99.90
27164;DHT22;14685;50.618;7.024;2024-03-25T13:05:49;14.10;99.90
27164;DHT22;14685;50.618;7.024;2024-03-25T13:08:15;14.10;99.90
27164;DHT22;14685;50.618;7.024;2024-03-25T13:10:43;14.10;99.90
27164;DHT22;14685;50.618;7.024;2024-03-25T13:13:09;14.20;99.90
27164;DHT22;14685;50.618;7.024;2024-03-25T13:15:35;14.10;99.90
27164;DHT22;14685;50.618;7.024;2024-03-25T13:18:01;14.10;99.90
27164;DHT22;14685;50.618;7.024;2024-03-25T13:20:26;14.10;99.90
27164;DHT22;14685;50.618;7.024;2024-03-25T13:22:54;14.20;99.90
27164;DHT22;14685;50.618;7.024;2024-03-25T13:25:25;14.20;99.90
27164;DHT22;14685;50.618;7.024;2024-03-25T13:27:52;14.30;99.90
27164;DHT22;14685;50.618;7.024;2024-03-25T13:30:18;14.30;99.90
27164;DHT22;14685;50.618;7.024;2024-03-25T13:32:44;14.30;99.90
27164;DHT22;14685;50.618;7.024;2024-03-25T13:35:10;14.30;99.90
27164;DHT22;14685;50.618;7.024;2024-03-25T13:37:36;14.20;99.90
27164;DHT22;14685;50.618;7.024;2024-03-25T13:40:01;14.30;99.90
27164;DHT22;14685;50.618;7.024;2024-03-25T13:42:28;14.30;99.90
27164;DHT22;14685;50.618;7.024;2024-03-25T13:44:54;14.20;99.90
27164;DHT22;14685;50.618;7.024;2024-03-25T13:47:20;14.10;99.90
27164;DHT22;14685;50.618;7.024;2024-03-25T13:49:47;14.00;99.90
27164;DHT22;14685;50.618;7.024;2024-03-25T13:52:12;14.00;99.90
27164;DHT22;14685;50.618;7.024;2024-03-25T13:54:38;14.00;99.90
27164;DHT22;14685;50.618;7.024;2024-03-25T13:57:04;14.00;99.90
27164;DHT22;14685;50.618;7.024;2024-03-25T13:59:29;14.00;99.90
27164;DHT22;14685;50.618;7.024;2024-03-25T14:01:55;14.00;99.90
27164;DHT22;14685;50.618;7.024;2024-03-25T14:04:21;13.90;99.90
27164;DHT22;14685;50.618;7.024;2024-03-25T14:06:48;13.90;99.90
27164;DHT22;14685;50.618;7.024;2024-03-25T14:09:23;13.90;99.90
27164;DHT22;14685;50.618;7.024;2024-03-25T14:11:50;14.00;99.90
27164;DHT22;14685;50.618;7.024;2024-03-25T14:14:16;14.10;99.90
27164;DHT22;14685;50.618;7.024;2024-03-25T14:16:43;14.10;99.90
27164;DHT22;14685;50.618;7.024;2024-03-25T14:19:09;14.00;99.90
27164;DHT22;14685;50.618;7.024;2024-03-25T14:21:35;13.90;99.90
27164;DHT22;14685;50.618;7.024;2024-03-25T14:24:00;14.00;99.90
27164;DHT22;14685;50.618;7.024;2024-03-25T14:26:27;14.00;99.90
27164;DHT22;14685;50.618;7.024;2024-03-25T14:28:53;14.00;99.90
27164;DHT22;14685;50.618;7.024;2024-03-25T14:31:19;14.00;99.90
27164;DHT22;14685;50.618;7.024;2024-03-25T14:33:44;14.00;99.90
27164;DHT22;14685;50.618;7.024;2024-03-25T14:36:10;13.90;99.90
27164;DHT22;14685;50.618;7.024;2024-03-25T14:38:36;13.90;99.90
27164;DHT22;14685;50.618;7.024;2024-03-25T14:41:05;14.00;99.90
27164;DHT22;14685;50.618;7.024;2024-03-25T14:43:31;14.00;99.90
27164;DHT22;14685;50.618;7.024;2024-03-25T14:45:56;13.90;99.90
27164;DHT22;14685;50.618;7.024;2024-03-25T14:48:22;13.90;99.90
27164;DHT22;14685;50.618;7.024;2024-03-25T14:50:49;13.90;99.90
27164;DHT22;14685;50.618;7.024;2024-03-25T14:53:14;13.90;99.90
27164;DHT22;14685;50.618;7.024;2024-03-25T14:55:42;13.90;99.90
27164;DHT22;14685;50.618;7.024;2024-03-25T14:58:07;13.90;99.90
27164;DHT22;14685;50.618;7.024;2024-03-25T15:00:34;13.90;99.90
27164;DHT22;14685;50.618;7.024;2024-03-25T15:03:00;13.90;99.90
27164;DHT22;14685;50.618;7.024;2024-03-25T15:05:26;13.80;99.90
27164;DHT22;14685;50.618;7.024;2024-03-25T15:07:52;13.90;99.90
27164;DHT22;14685;50.618;7.024;2024-03-25T15:10:18;13.80;99.90
27164;DHT22;14685;50.618;7.024;2024-03-25T15:12:46;13.80;99.90
27164;DHT22;14685;50.618;7.024;2024-03-25T15:15:12;13.80;99.90
27164;DHT22;14685;50.618;7.024;2024-03-25T15:17:38;13.90;99.90
27164;DHT22;14685;50.618;7.024;2024-03-25T15:20:04;13.80;99.90
27164;DHT22;14685;50.618;7.024;2024-03-25T15:22:33;13.80;99.90
27164;DHT22;14685;50.618;7.024;2024-03-25T15:25:00;13.80;99.90
27164;DHT22;14685;50.618;7.024;2024-03-25T15:27:27;13.80;99.90
27164;DHT22;14685;50.618;7.024;2024-03-25T15:29:52;13.80;99.90
27164;DHT22;14685;50.618;7.024;2024-03-25T15:32:20;13.70;99.90
27164;DHT22;14685;50.618;7.024;2024-03-25T15:34:47;13.70;99.90
27164;DHT22;14685;50.618;7.024;2024-03-25T15:37:13;13.70;99.90
27164;DHT22;14685;50.618;7.024;2024-03-25T15:39:38;13.60;99.90